Terminal Aerodrome Forecast
Issued by NWS

Home | Current Version | Previous Version | Text Only | Print | Product List | Glossary On
Versions: 1 2 3 4 5 6 7 8 9 10 11 12 13 14 15 16 17 18 19 20 21 22 23 24 25
373
FTUS43 KLOT 222324
TAFORD
TAF
KORD 222324Z 2300/2406 36010KT 6SM -DZ BR VCSH SCT008 BKN012 OVC035
      TEMPO 2300/2304 4SM -RA BR BKN008
     FM231000 36008KT 5SM -DZ BR VCSH SCT009 BKN025
     FM231400 34007KT P6SM FEW025 BKN150
     FM240000 29006KT P6SM VCSH SCT030 BKN100
     FM240300 29010KT P6SM -SHRA SCT012 OVC040=

USA.gov is the U.S. government's official web portal to all federal, state and local government web resources and services.